sensor_id;sensor_type;location;lat;lon;timestamp;temperature;humidity
40153;DHT22;26371;56.992;23.912;2023-08-17T00:01:43;20.10;99.90
40153;DHT22;26371;56.992;23.912;2023-08-17T00:04:14;20.00;99.90
40153;DHT22;26371;56.992;23.912;2023-08-17T00:06:42;19.90;99.90
40153;DHT22;26371;56.992;23.912;2023-08-17T00:09:12;19.90;99.90
40153;DHT22;26371;56.992;23.912;2023-08-17T00:11:41;19.80;99.90
40153;DHT22;26371;56.992;23.912;2023-08-17T00:24:04;19.60;99.90
40153;DHT22;26371;56.992;23.912;2023-08-17T00:26:34;19.60;99.90
40153;DHT22;26371;56.992;23.912;2023-08-17T00:29:03;19.50;99.90
40153;DHT22;26371;56.992;23.912;2023-08-17T00:31:31;19.50;99.90
40153;DHT22;26371;56.992;23.912;2023-08-17T00:34:00;19.50;99.90
40153;DHT22;26371;56.992;23.912;2023-08-17T00:36:29;19.40;99.90
40153;DHT22;26371;56.992;23.912;2023-08-17T00:38:58;19.40;99.90
40153;DHT22;26371;56.992;23.912;2023-08-17T00:41:26;19.40;99.90
40153;DHT22;26371;56.992;23.912;2023-08-17T00:43:57;19.40;99.90
40153;DHT22;26371;56.992;23.912;2023-08-17T00:46:25;19.40;99.90
40153;DHT22;26371;56.992;23.912;2023-08-17T00:48:55;19.50;99.90
40153;DHT22;26371;56.992;23.912;2023-08-17T00:51:25;19.60;99.90
40153;DHT22;26371;56.992;23.912;2023-08-17T00:53:54;19.60;99.90
40153;DHT22;26371;56.992;23.912;2023-08-17T00:56:24;19.60;99.90
40153;DHT22;26371;56.992;23.912;2023-08-17T00:58:52;19.70;99.90
40153;DHT22;26371;56.992;23.912;2023-08-17T01:01:22;19.70;99.90
40153;DHT22;26371;56.992;23.912;2023-08-17T01:03:51;19.80;99.90
40153;DHT22;26371;56.992;23.912;2023-08-17T01:06:20;19.80;99.90
40153;DHT22;26371;56.992;23.912;2023-08-17T01:08:49;19.80;99.90
40153;DHT22;26371;56.992;23.912;2023-08-17T01:11:20;19.80;99.90
40153;DHT22;26371;56.992;23.912;2023-08-17T01:13:51;19.80;99.90
40153;DHT22;26371;56.992;23.912;2023-08-17T01:16:24;19.80;99.90
40153;DHT22;26371;56.992;23.912;2023-08-17T01:18:54;19.80;99.90
40153;DHT22;26371;56.992;23.912;2023-08-17T01:21:24;20.00;99.90
40153;DHT22;26371;56.992;23.912;2023-08-17T01:23:57;20.00;99.90
40153;DHT22;26371;56.992;23.912;2023-08-17T01:26:26;20.00;99.90
40153;DHT22;26371;56.992;23.912;2023-08-17T01:28:55;20.10;99.90
40153;DHT22;26371;56.992;23.912;2023-08-17T01:31:23;20.10;99.90
40153;DHT22;26371;56.992;23.912;2023-08-17T01:33:56;20.00;99.90
40153;DHT22;26371;56.992;23.912;2023-08-17T01:36:26;20.10;99.90
40153;DHT22;26371;56.992;23.912;2023-08-17T01:38:57;20.20;99.90
40153;DHT22;26371;56.992;23.912;2023-08-17T01:41:28;20.10;99.90
40153;DHT22;26371;56.992;23.912;2023-08-17T01:43:58;20.10;99.90
40153;DHT22;26371;56.992;23.912;2023-08-17T01:46:29;20.10;99.90
40153;DHT22;26371;56.992;23.912;2023-08-17T01:48:58;20.10;99.90
40153;DHT22;26371;56.992;23.912;2023-08-17T01:51:27;20.10;99.90
40153;DHT22;26371;56.992;23.912;2023-08-17T01:53:57;20.00;99.90
40153;DHT22;26371;56.992;23.912;2023-08-17T01:56:25;20.00;99.90
40153;DHT22;26371;56.992;23.912;2023-08-17T01:58:54;20.00;99.90
40153;DHT22;26371;56.992;23.912;2023-08-17T02:01:22;20.00;99.90
40153;DHT22;26371;56.992;23.912;2023-08-17T02:03:50;20.00;99.90
40153;DHT22;26371;56.992;23.912;2023-08-17T02:06:19;19.90;99.90
40153;DHT22;26371;56.992;23.912;2023-08-17T02:08:47;19.90;99.90
40153;DHT22;26371;56.992;23.912;2023-08-17T02:11:17;19.90;99.90
40153;DHT22;26371;56.992;23.912;2023-08-17T02:13:46;19.90;99.90
40153;DHT22;26371;56.992;23.912;2023-08-17T02:16:14;19.80;99.90
40153;DHT22;26371;56.992;23.912;2023-08-17T02:18:42;19.90;99.90
40153;DHT22;26371;56.992;23.912;2023-08-17T02:21:11;19.90;99.90
40153;DHT22;26371;56.992;23.912;2023-08-17T02:23:39;19.80;99.90
40153;DHT22;26371;56.992;23.912;2023-08-17T02:26:08;19.80;99.90
40153;DHT22;26371;56.992;23.912;2023-08-17T02:28:37;19.80;99.90
40153;DHT22;26371;56.992;23.912;2023-08-17T02:31:06;19.80;99.90
40153;DHT22;26371;56.992;23.912;2023-08-17T02:33:34;19.80;99.90
40153;DHT22;26371;56.992;23.912;2023-08-17T02:36:05;19.80;99.90
40153;DHT22;26371;56.992;23.912;2023-08-17T02:38:34;19.80;99.90
40153;DHT22;26371;56.992;23.912;2023-08-17T02:41:02;19.70;99.90
40153;DHT22;26371;56.992;23.912;2023-08-17T02:43:30;19.80;99.90
40153;DHT22;26371;56.992;23.912;2023-08-17T02:46:00;19.70;99.90
40153;DHT22;26371;56.992;23.912;2023-08-17T02:48:29;19.70;99.90
40153;DHT22;26371;56.992;23.912;2023-08-17T02:50:59;19.70;99.90
40153;DHT22;26371;56.992;23.912;2023-08-17T02:53:27;19.70;99.90
40153;DHT22;26371;56.992;23.912;2023-08-17T02:55:56;19.70;99.90
40153;DHT22;26371;56.992;23.912;2023-08-17T02:58:25;19.70;99.90
40153;DHT22;26371;56.992;23.912;2023-08-17T03:00:54;19.60;99.90
40153;DHT22;26371;56.992;23.912;2023-08-17T03:03:24;19.60;99.90
40153;DHT22;26371;56.992;23.912;2023-08-17T03:05:53;19.60;99.90
40153;DHT22;26371;56.992;23.912;2023-08-17T03:08:21;19.60;99.90
40153;DHT22;26371;56.992;23.912;2023-08-17T03:10:50;19.60;99.90
40153;DHT22;26371;56.992;23.912;2023-08-17T03:13:18;19.60;99.90
40153;DHT22;26371;56.992;23.912;2023-08-17T03:15:46;19.60;99.90
40153;DHT22;26371;56.992;23.912;2023-08-17T03:18:15;19.50;99.90
40153;DHT22;26371;56.992;23.912;2023-08-17T03:20:45;19.50;99.90
40153;DHT22;26371;56.992;23.912;2023-08-17T03:23:14;19.50;99.90
40153;DHT22;26371;56.992;23.912;2023-08-17T03:25:43;19.50;99.90
40153;DHT22;26371;56.992;23.912;2023-08-17T03:28:13;19.50;99.90
40153;DHT22;26371;56.992;23.912;2023-08-17T03:30:42;19.60;99.90
40153;DHT22;26371;56.992;23.912;2023-08-17T03:33:10;19.60;99.90
40153;DHT22;26371;56.992;23.912;2023-08-17T03:35:39;19.60;99.90
40153;DHT22;26371;56.992;23.912;2023-08-17T03:38:09;19.60;99.90
40153;DHT22;26371;56.992;23.912;2023-08-17T03:40:38;19.60;99.90
40153;DHT22;26371;56.992;23.912;2023-08-17T03:43:07;19.60;99.90
40153;DHT22;26371;56.992;23.912;2023-08-17T03:45:36;19.60;99.90
40153;DHT22;26371;56.992;23.912;2023-08-17T03:48:05;19.50;99.90
40153;DHT22;26371;56.992;23.912;2023-08-17T03:50:34;19.60;99.90
40153;DHT22;26371;56.992;23.912;2023-08-17T03:53:03;19.60;99.90
40153;DHT22;26371;56.992;23.912;2023-08-17T03:55:33;19.60;99.90
40153;DHT22;26371;56.992;23.912;2023-08-17T03:58:01;19.60;99.90
40153;DHT22;26371;56.992;23.912;2023-08-17T04:00:30;19.70;99.90
40153;DHT22;26371;56.992;23.912;2023-08-17T04:02:58;19.70;99.90
40153;DHT22;26371;56.992;23.912;2023-08-17T04:05:27;19.70;99.90
40153;DHT22;26371;56.992;23.912;2023-08-17T04:07:55;19.70;99.90
40153;DHT22;26371;56.992;23.912;2023-08-17T04:10:28;19.80;99.90
40153;DHT22;26371;56.992;23.912;2023-08-17T04:12:58;19.80;99.90
40153;DHT22;26371;56.992;23.912;2023-08-17T04:15:26;19.80;99.90
40153;DHT22;26371;56.992;23.912;2023-08-17T04:17:55;19.80;99.90
40153;DHT22;26371;56.992;23.912;2023-08-17T04:20:24;19.80;99.90
40153;DHT22;26371;56.992;23.912;2023-08-17T04:22:52;19.90;99.90
40153;DHT22;26371;56.992;23.912;2023-08-17T04:25:21;19.80;99.90
40153;DHT22;26371;56.992;23.912;2023-08-17T04:27:49;19.90;99.90
40153;DHT22;26371;56.992;23.912;2023-08-17T04:30:19;19.90;99.90
40153;DHT22;26371;56.992;23.912;2023-08-17T04:32:56;19.90;99.90
40153;DHT22;26371;56.992;23.912;2023-08-17T04:35:25;19.90;99.90
40153;DHT22;26371;56.992;23.912;2023-08-17T04:37:53;20.00;99.90
40153;DHT22;26371;56.992;23.912;2023-08-17T04:40:22;20.00;99.90
40153;DHT22;26371;56.992;23.912;2023-08-17T04:42:51;20.00;99.90
40153;DHT22;26371;56.992;23.912;2023-08-17T04:45:23;20.00;99.90
40153;DHT22;26371;56.992;23.912;2023-08-17T04:47:51;20.00;99.90
40153;DHT22;26371;56.992;23.912;2023-08-17T04:50:20;20.10;99.90
40153;DHT22;26371;56.992;23.912;2023-08-17T04:52:49;20.10;99.90
40153;DHT22;26371;56.992;23.912;2023-08-17T04:55:17;20.10;99.90
40153;DHT22;26371;56.992;23.912;2023-08-17T04:57:46;20.10;99.90
40153;DHT22;26371;56.992;23.912;2023-08-17T05:00:16;20.10;99.90
40153;DHT22;26371;56.992;23.912;2023-08-17T05:02:46;20.10;99.90
40153;DHT22;26371;56.992;23.912;2023-08-17T05:05:14;20.00;99.90
40153;DHT22;26371;56.992;23.912;2023-08-17T05:07:43;20.00;99.90
40153;DHT22;26371;56.992;23.912;2023-08-17T05:10:11;20.00;99.90
40153;DHT22;26371;56.992;23.912;2023-08-17T05:12:41;20.00;99.90
40153;DHT22;26371;56.992;23.912;2023-08-17T05:15:09;20.00;99.90
40153;DHT22;26371;56.992;23.912;2023-08-17T05:17:39;20.00;99.90
40153;DHT22;26371;56.992;23.912;2023-08-17T05:20:12;20.00;99.90
40153;DHT22;26371;56.992;23.912;2023-08-17T05:22:41;20.00;99.90
40153;DHT22;26371;56.992;23.912;2023-08-17T05:25:10;20.00;99.90
40153;DHT22;26371;56.992;23.912;2023-08-17T05:27:40;20.00;99.90
40153;DHT22;26371;56.992;23.912;2023-08-17T05:30:10;20.00;99.90
40153;DHT22;26371;56.992;23.912;2023-08-17T05:32:39;20.00;99.90
40153;DHT22;26371;56.992;23.912;2023-08-17T05:35:09;20.00;99.90
40153;DHT22;26371;56.992;23.912;2023-08-17T05:37:39;20.00;99.90
40153;DHT22;26371;56.992;23.912;2023-08-17T05:40:07;19.90;99.90
40153;DHT22;26371;56.992;23.912;2023-08-17T05:42:38;19.90;99.90
40153;DHT22;26371;56.992;23.912;2023-08-17T05:45:07;19.90;99.90
40153;DHT22;26371;56.992;23.912;2023-08-17T05:47:35;20.00;99.90
40153;DHT22;26371;56.992;23.912;2023-08-17T05:50:04;19.90;99.90
40153;DHT22;26371;56.992;23.912;2023-08-17T05:52:32;20.00;99.90
40153;DHT22;26371;56.992;23.912;2023-08-17T05:55:02;20.00;99.90
40153;DHT22;26371;56.992;23.912;2023-08-17T05:57:31;20.10;99.90
40153;DHT22;26371;56.992;23.912;2023-08-17T05:59:59;20.20;99.90
40153;DHT22;26371;56.992;23.912;2023-08-17T06:02:38;20.30;99.90
40153;DHT22;26371;56.992;23.912;2023-08-17T06:05:07;20.30;99.90
40153;DHT22;26371;56.992;23.912;2023-08-17T06:07:36;20.30;99.90
40153;DHT22;26371;56.992;23.912;2023-08-17T06:10:06;20.30;99.90
40153;DHT22;26371;56.992;23.912;2023-08-17T06:12:35;20.50;99.90
40153;DHT22;26371;56.992;23.912;2023-08-17T06:15:03;20.50;99.90
40153;DHT22;26371;56.992;23.912;2023-08-17T06:17:32;20.60;99.90
40153;DHT22;26371;56.992;23.912;2023-08-17T06:20:00;20.70;99.90
40153;DHT22;26371;56.992;23.912;2023-08-17T06:22:30;20.70;99.90
40153;DHT22;26371;56.992;23.912;2023-08-17T06:24:58;20.70;99.90
40153;DHT22;26371;56.992;23.912;2023-08-17T06:27:28;20.70;99.90
40153;DHT22;26371;56.992;23.912;2023-08-17T06:29:58;20.70;99.90
40153;DHT22;26371;56.992;23.912;2023-08-17T06:32:26;20.70;99.90
40153;DHT22;26371;56.992;23.912;2023-08-17T06:34:54;20.70;99.90
40153;DHT22;26371;56.992;23.912;2023-08-17T06:37:24;20.70;99.90
40153;DHT22;26371;56.992;23.912;2023-08-17T06:39:53;20.70;99.90
40153;DHT22;26371;56.992;23.912;2023-08-17T06:42:21;20.70;99.90
40153;DHT22;26371;56.992;23.912;2023-08-17T06:44:51;20.70;99.90
40153;DHT22;26371;56.992;23.912;2023-08-17T06:47:19;20.70;99.90
40153;DHT22;26371;56.992;23.912;2023-08-17T06:49:48;20.60;99.90
40153;DHT22;26371;56.992;23.912;2023-08-17T06:52:16;20.60;99.90
40153;DHT22;26371;56.992;23.912;2023-08-17T06:54:45;20.70;99.90
40153;DHT22;26371;56.992;23.912;2023-08-17T06:57:13;20.70;99.90
40153;DHT22;26371;56.992;23.912;2023-08-17T06:59:41;20.70;99.90
40153;DHT22;26371;56.992;23.912;2023-08-17T07:02:14;20.70;99.90
40153;DHT22;26371;56.992;23.912;2023-08-17T07:04:43;20.60;99.90
40153;DHT22;26371;56.992;23.912;2023-08-17T07:07:11;20.60;99.90
40153;DHT22;26371;56.992;23.912;2023-08-17T07:09:41;20.60;99.90
40153;DHT22;26371;56.992;23.912;2023-08-17T07:12:09;20.60;99.90
40153;DHT22;26371;56.992;23.912;2023-08-17T07:14:38;20.70;99.90
40153;DHT22;26371;56.992;23.912;2023-08-17T07:17:06;20.60;99.90
40153;DHT22;26371;56.992;23.912;2023-08-17T07:19:36;20.70;99.90
40153;DHT22;26371;56.992;23.912;2023-08-17T07:22:25;20.70;99.90
40153;DHT22;26371;56.992;23.912;2023-08-17T07:24:53;20.70;99.90
40153;DHT22;26371;56.992;23.912;2023-08-17T07:27:21;20.90;99.90
40153;DHT22;26371;56.992;23.912;2023-08-17T07:29:50;21.00;99.90
40153;DHT22;26371;56.992;23.912;2023-08-17T07:32:19;21.00;99.90
40153;DHT22;26371;56.992;23.912;2023-08-17T07:34:49;21.00;99.90
40153;DHT22;26371;56.992;23.912;2023-08-17T07:37:17;21.00;99.90
40153;DHT22;26371;56.992;23.912;2023-08-17T07:39:49;21.00;99.90
40153;DHT22;26371;56.992;23.912;2023-08-17T07:42:17;21.00;99.90
40153;DHT22;26371;56.992;23.912;2023-08-17T07:44:46;21.10;99.90
40153;DHT22;26371;56.992;23.912;2023-08-17T07:47:15;21.10;99.90
40153;DHT22;26371;56.992;23.912;2023-08-17T07:49:43;21.20;99.90
40153;DHT22;26371;56.992;23.912;2023-08-17T07:52:14;21.30;99.90
40153;DHT22;26371;56.992;23.912;2023-08-17T07:54:43;21.30;99.90
40153;DHT22;26371;56.992;23.912;2023-08-17T07:57:12;21.30;99.90
40153;DHT22;26371;56.992;23.912;2023-08-17T07:59:43;21.20;99.90
40153;DHT22;26371;56.992;23.912;2023-08-17T08:02:11;21.20;99.90
40153;DHT22;26371;56.992;23.912;2023-08-17T08:04:40;21.10;99.90
40153;DHT22;26371;56.992;23.912;2023-08-17T08:07:08;21.10;99.90
40153;DHT22;26371;56.992;23.912;2023-08-17T08:09:38;21.20;99.90
40153;DHT22;26371;56.992;23.912;2023-08-17T08:12:06;21.30;99.90
40153;DHT22;26371;56.992;23.912;2023-08-17T08:14:35;21.40;99.90
40153;DHT22;26371;56.992;23.912;2023-08-17T08:17:04;21.40;99.90
40153;DHT22;26371;56.992;23.912;2023-08-17T08:19:32;21.40;99.90
40153;DHT22;26371;56.992;23.912;2023-08-17T08:22:04;21.50;99.90
40153;DHT22;26371;56.992;23.912;2023-08-17T08:24:33;21.50;99.90
40153;DHT22;26371;56.992;23.912;2023-08-17T08:27:06;21.50;99.90
40153;DHT22;26371;56.992;23.912;2023-08-17T08:29:35;21.50;99.90
40153;DHT22;26371;56.992;23.912;2023-08-17T08:32:04;21.40;99.90
40153;DHT22;26371;56.992;23.912;2023-08-17T08:34:36;21.50;99.90
40153;DHT22;26371;56.992;23.912;2023-08-17T08:37:05;21.50;99.90
40153;DHT22;26371;56.992;23.912;2023-08-17T08:39:33;21.60;99.90
40153;DHT22;26371;56.992;23.912;2023-08-17T08:42:17;21.70;99.90
40153;DHT22;26371;56.992;23.912;2023-08-17T08:44:45;21.80;99.90
40153;DHT22;26371;56.992;23.912;2023-08-17T08:47:14;21.80;99.90
40153;DHT22;26371;56.992;23.912;2023-08-17T08:49:47;21.80;99.90
40153;DHT22;26371;56.992;23.912;2023-08-17T08:52:18;21.70;99.90
40153;DHT22;26371;56.992;23.912;2023-08-17T08:54:49;21.60;99.90
40153;DHT22;26371;56.992;23.912;2023-08-17T08:57:19;21.40;99.90
40153;DHT22;26371;56.992;23.912;2023-08-17T08:59:47;21.40;99.90
40153;DHT22;26371;56.992;23.912;2023-08-17T09:02:16;21.30;99.90
40153;DHT22;26371;56.992;23.912;2023-08-17T09:04:45;21.30;99.90
40153;DHT22;26371;56.992;23.912;2023-08-17T09:07:13;21.30;99.90
40153;DHT22;26371;56.992;23.912;2023-08-17T09:09:42;21.40;99.90
40153;DHT22;26371;56.992;23.912;2023-08-17T09:12:11;21.60;99.90
40153;DHT22;26371;56.992;23.912;2023-08-17T09:14:50;21.60;99.90
40153;DHT22;26371;56.992;23.912;2023-08-17T09:17:23;21.70;99.90
40153;DHT22;26371;56.992;23.912;2023-08-17T09:19:52;21.70;99.90
40153;DHT22;26371;56.992;23.912;2023-08-17T09:22:24;21.70;99.90
40153;DHT22;26371;56.992;23.912;2023-08-17T09:24:52;21.50;99.90
40153;DHT22;26371;56.992;23.912;2023-08-17T09:27:21;21.50;99.90
40153;DHT22;26371;56.992;23.912;2023-08-17T09:29:51;21.50;99.90
40153;DHT22;26371;56.992;23.912;2023-08-17T09:32:19;21.50;99.90
40153;DHT22;26371;56.992;23.912;2023-08-17T09:34:47;21.40;99.90
40153;DHT22;26371;56.992;23.912;2023-08-17T09:37:17;21.40;99.90
40153;DHT22;26371;56.992;23.912;2023-08-17T09:39:45;21.50;99.90
40153;DHT22;26371;56.992;23.912;2023-08-17T09:42:14;21.60;99.90
40153;DHT22;26371;56.992;23.912;2023-08-17T09:44:45;21.80;99.90
40153;DHT22;26371;56.992;23.912;2023-08-17T09:47:16;21.80;99.90
40153;DHT22;26371;56.992;23.912;2023-08-17T09:49:47;21.90;99.90
40153;DHT22;26371;56.992;23.912;2023-08-17T09:52:16;22.10;99.90
40153;DHT22;26371;56.992;23.912;2023-08-17T09:54:45;22.30;99.90
40153;DHT22;26371;56.992;23.912;2023-08-17T09:57:14;22.30;99.90
40153;DHT22;26371;56.992;23.912;2023-08-17T10:02:23;22.90;99.90
40153;DHT22;26371;56.992;23.912;2023-08-17T10:04:52;23.00;99.90
40153;DHT22;26371;56.992;23.912;2023-08-17T10:07:21;23.00;99.90
40153;DHT22;26371;56.992;23.912;2023-08-17T10:09:53;22.90;99.90
40153;DHT22;26371;56.992;23.912;2023-08-17T10:12:23;23.00;99.90
40153;DHT22;26371;56.992;23.912;2023-08-17T10:14:55;23.00;99.90
40153;DHT22;26371;56.992;23.912;2023-08-17T10:17:30;23.00;99.90
40153;DHT22;26371;56.992;23.912;2023-08-17T10:19:59;22.90;99.90
40153;DHT22;26371;56.992;23.912;2023-08-17T10:22:29;22.70;99.90
40153;DHT22;26371;56.992;23.912;2023-08-17T10:25:02;22.50;99.90
40153;DHT22;26371;56.992;23.912;2023-08-17T10:27:30;22.40;99.90
40153;DHT22;26371;56.992;23.912;2023-08-17T10:30:00;22.40;99.90
40153;DHT22;26371;56.992;23.912;2023-08-17T10:32:36;22.40;99.90
40153;DHT22;26371;56.992;23.912;2023-08-17T10:35:05;22.40;99.90
40153;DHT22;26371;56.992;23.912;2023-08-17T10:37:34;22.30;99.90
40153;DHT22;26371;56.992;23.912;2023-08-17T11:12:28;21.20;99.90
40153;DHT22;26371;56.992;23.912;2023-08-17T11:14:57;21.10;99.90
40153;DHT22;26371;56.992;23.912;2023-08-17T11:17:26;20.90;99.90
40153;DHT22;26371;56.992;23.912;2023-08-17T11:19:57;20.50;99.90
40153;DHT22;26371;56.992;23.912;2023-08-17T11:22:25;20.50;99.90
40153;DHT22;26371;56.992;23.912;2023-08-17T11:24:54;20.40;99.90
40153;DHT22;26371;56.992;23.912;2023-08-17T11:27:22;20.30;99.90
40153;DHT22;26371;56.992;23.912;2023-08-17T11:29:53;20.20;99.90
40153;DHT22;26371;56.992;23.912;2023-08-17T11:32:21;20.10;99.90
40153;DHT22;26371;56.992;23.912;2023-08-17T11:34:51;20.00;99.90
40153;DHT22;26371;56.992;23.912;2023-08-17T11:37:25;20.00;99.90
40153;DHT22;26371;56.992;23.912;2023-08-17T11:39:54;20.00;99.90
40153;DHT22;26371;56.992;23.912;2023-08-17T11:42:22;20.00;99.90
40153;DHT22;26371;56.992;23.912;2023-08-17T11:44:53;20.00;99.90
40153;DHT22;26371;56.992;23.912;2023-08-17T11:47:21;20.00;99.90
40153;DHT22;26371;56.992;23.912;2023-08-17T11:49:50;19.90;99.90
40153;DHT22;26371;56.992;23.912;2023-08-17T11:52:25;19.90;99.90
40153;DHT22;26371;56.992;23.912;2023-08-17T11:54:55;19.90;99.90
40153;DHT22;26371;56.992;23.912;2023-08-17T11:57:24;19.90;99.90
40153;DHT22;26371;56.992;23.912;2023-08-17T11:59:54;19.90;99.90
40153;DHT22;26371;56.992;23.912;2023-08-17T12:02:23;19.80;99.90
40153;DHT22;26371;56.992;23.912;2023-08-17T12:04:52;19.80;99.90
40153;DHT22;26371;56.992;23.912;2023-08-17T12:07:21;19.80;99.90
40153;DHT22;26371;56.992;23.912;2023-08-17T12:09:50;19.80;99.90
40153;DHT22;26371;56.992;23.912;2023-08-17T12:12:19;19.80;99.90
40153;DHT22;26371;56.992;23.912;2023-08-17T12:14:49;19.80;99.90
40153;DHT22;26371;56.992;23.912;2023-08-17T12:17:19;19.90;99.90
40153;DHT22;26371;56.992;23.912;2023-08-17T12:19:48;19.90;99.90
40153;DHT22;26371;56.992;23.912;2023-08-17T12:22:17;19.80;99.90
40153;DHT22;26371;56.992;23.912;2023-08-17T12:24:45;19.80;99.90
40153;DHT22;26371;56.992;23.912;2023-08-17T12:27:15;19.90;99.90
40153;DHT22;26371;56.992;23.912;2023-08-17T12:29:46;19.90;99.90
40153;DHT22;26371;56.992;23.912;2023-08-17T12:32:14;19.90;99.90
40153;DHT22;26371;56.992;23.912;2023-08-17T12:34:44;19.90;99.90
40153;DHT22;26371;56.992;23.912;2023-08-17T12:37:17;20.00;99.90
40153;DHT22;26371;56.992;23.912;2023-08-17T12:39:46;20.00;99.90
40153;DHT22;26371;56.992;23.912;2023-08-17T12:42:15;20.10;99.90
40153;DHT22;26371;56.992;23.912;2023-08-17T12:44:45;20.20;99.90
40153;DHT22;26371;56.992;23.912;2023-08-17T12:47:13;20.30;99.90
40153;DHT22;26371;56.992;23.912;2023-08-17T12:49:42;20.40;99.90
40153;DHT22;26371;56.992;23.912;2023-08-17T12:52:11;20.40;99.90
40153;DHT22;26371;56.992;23.912;2023-08-17T12:54:40;20.40;99.90
40153;DHT22;26371;56.992;23.912;2023-08-17T12:57:08;20.50;99.90
40153;DHT22;26371;56.992;23.912;2023-08-17T12:59:39;20.50;99.90
40153;DHT22;26371;56.992;23.912;2023-08-17T13:02:07;20.50;99.90
40153;DHT22;26371;56.992;23.912;2023-08-17T13:04:35;20.60;99.90
40153;DHT22;26371;56.992;23.912;2023-08-17T13:07:04;20.70;99.90
40153;DHT22;26371;56.992;23.912;2023-08-17T13:09:34;20.70;99.90
40153;DHT22;26371;56.992;23.912;2023-08-17T13:12:03;20.70;99.90
40153;DHT22;26371;56.992;23.912;2023-08-17T13:14:31;20.80;99.90
40153;DHT22;26371;56.992;23.912;2023-08-17T13:17:00;20.80;99.90
40153;DHT22;26371;56.992;23.912;2023-08-17T13:19:28;20.90;99.90
40153;DHT22;26371;56.992;23.912;2023-08-17T13:21:57;21.00;99.90
40153;DHT22;26371;56.992;23.912;2023-08-17T13:24:25;21.10;99.90
40153;DHT22;26371;56.992;23.912;2023-08-17T13:26:55;21.20;99.90
40153;DHT22;26371;56.992;23.912;2023-08-17T13:29:24;21.30;99.90
40153;DHT22;26371;56.992;23.912;2023-08-17T13:31:52;21.30;99.90
40153;DHT22;26371;56.992;23.912;2023-08-17T13:34:21;21.40;99.90
40153;DHT22;26371;56.992;23.912;2023-08-17T13:36:49;21.40;99.90
40153;DHT22;26371;56.992;23.912;2023-08-17T13:39:18;21.50;99.90
40153;DHT22;26371;56.992;23.912;2023-08-17T13:41:46;21.60;99.90
40153;DHT22;26371;56.992;23.912;2023-08-17T13:44:16;21.60;99.90
40153;DHT22;26371;56.992;23.912;2023-08-17T13:46:44;21.50;99.90
40153;DHT22;26371;56.992;23.912;2023-08-17T13:49:13;21.50;99.90
40153;DHT22;26371;56.992;23.912;2023-08-17T13:51:41;21.50;99.90
40153;DHT22;26371;56.992;23.912;2023-08-17T13:54:10;21.40;99.90
40153;DHT22;26371;56.992;23.912;2023-08-17T13:56:38;21.30;99.90
40153;DHT22;26371;56.992;23.912;2023-08-17T13:59:06;21.20;99.90
40153;DHT22;26371;56.992;23.912;2023-08-17T14:01:36;21.10;99.90
40153;DHT22;26371;56.992;23.912;2023-08-17T14:04:05;21.00;99.90
40153;DHT22;26371;56.992;23.912;2023-08-17T14:06:38;20.90;99.90
40153;DHT22;26371;56.992;23.912;2023-08-17T14:09:06;20.90;99.90
40153;DHT22;26371;56.992;23.912;2023-08-17T14:11:35;20.90;99.90
40153;DHT22;26371;56.992;23.912;2023-08-17T14:14:03;20.90;99.90
40153;DHT22;26371;56.992;23.912;2023-08-17T14:16:34;21.00;99.90
40153;DHT22;26371;56.992;23.912;2023-08-17T14:19:04;21.00;99.90
40153;DHT22;26371;56.992;23.912;2023-08-17T14:21:33;21.10;99.90
40153;DHT22;26371;56.992;23.912;2023-08-17T14:24:01;21.10;99.90
40153;DHT22;26371;56.992;23.912;2023-08-17T14:26:30;21.20;99.90
40153;DHT22;26371;56.992;23.912;2023-08-17T14:28:59;21.30;99.90
40153;DHT22;26371;56.992;23.912;2023-08-17T14:31:27;21.40;99.90
40153;DHT22;26371;56.992;23.912;2023-08-17T14:33:56;21.50;99.90
40153;DHT22;26371;56.992;23.912;2023-08-17T14:36:25;21.60;99.90
40153;DHT22;26371;56.992;23.912;2023-08-17T14:38:54;21.60;99.90
40153;DHT22;26371;56.992;23.912;2023-08-17T14:41:26;21.70;99.90
40153;DHT22;26371;56.992;23.912;2023-08-17T14:43:59;21.70;99.90
40153;DHT22;26371;56.992;23.912;2023-08-17T14:46:32;21.70;99.90
40153;DHT22;26371;56.992;23.912;2023-08-17T14:49:02;21.60;99.90
40153;DHT22;26371;56.992;23.912;2023-08-17T14:51:33;21.60;99.90
40153;DHT22;26371;56.992;23.912;2023-08-17T14:54:04;21.60;99.90
40153;DHT22;26371;56.992;23.912;2023-08-17T14:56:33;21.70;99.90
40153;DHT22;26371;56.992;23.912;2023-08-17T14:59:01;21.80;99.90
40153;DHT22;26371;56.992;23.912;2023-08-17T15:01:36;21.80;99.90
40153;DHT22;26371;56.992;23.912;2023-08-17T15:04:05;21.80;99.90
40153;DHT22;26371;56.992;23.912;2023-08-17T15:06:36;21.60;99.90
40153;DHT22;26371;56.992;23.912;2023-08-17T15:09:08;21.60;99.90
40153;DHT22;26371;56.992;23.912;2023-08-17T15:11:37;21.60;99.90
40153;DHT22;26371;56.992;23.912;2023-08-17T15:14:05;21.60;99.90
40153;DHT22;26371;56.992;23.912;2023-08-17T15:16:33;21.70;99.90
40153;DHT22;26371;56.992;23.912;2023-08-17T15:19:02;21.90;99.90
40153;DHT22;26371;56.992;23.912;2023-08-17T15:21:30;21.90;99.90
40153;DHT22;26371;56.992;23.912;2023-08-17T15:24:00;21.80;99.90
40153;DHT22;26371;56.992;23.912;2023-08-17T15:26:29;21.80;99.90
40153;DHT22;26371;56.992;23.912;2023-08-17T15:28:57;22.00;99.90
40153;DHT22;26371;56.992;23.912;2023-08-17T15:31:26;21.90;99.90
40153;DHT22;26371;56.992;23.912;2023-08-17T15:33:54;21.80;99.90
40153;DHT22;26371;56.992;23.912;2023-08-17T15:36:23;21.80;99.90
40153;DHT22;26371;56.992;23.912;2023-08-17T15:38:53;21.70;99.90
40153;DHT22;26371;56.992;23.912;2023-08-17T15:41:23;21.80;99.90
40153;DHT22;26371;56.992;23.912;2023-08-17T15:43:52;21.80;99.90
40153;DHT22;26371;56.992;23.912;2023-08-17T15:46:20;21.70;99.90
40153;DHT22;26371;56.992;23.912;2023-08-17T15:48:49;21.50;99.90
40153;DHT22;26371;56.992;23.912;2023-08-17T15:51:17;21.40;99.90
40153;DHT22;26371;56.992;23.912;2023-08-17T15:53:46;21.20;99.90
40153;DHT22;26371;56.992;23.912;2023-08-17T15:56:17;21.10;99.90
40153;DHT22;26371;56.992;23.912;2023-08-17T15:58:47;21.00;99.90
40153;DHT22;26371;56.992;23.912;2023-08-17T16:01:15;20.90;99.90
40153;DHT22;26371;56.992;23.912;2023-08-17T16:03:44;20.90;99.90
40153;DHT22;26371;56.992;23.912;2023-08-17T16:06:13;20.80;99.90
40153;DHT22;26371;56.992;23.912;2023-08-17T16:08:43;20.70;99.90
40153;DHT22;26371;56.992;23.912;2023-08-17T16:11:15;20.60;99.90
40153;DHT22;26371;56.992;23.912;2023-08-17T16:13:44;20.60;99.90